Terminal Aerodrome Forecast
Issued by NWS

Home | Current Version | Previous Version | Text Only | Print | Product List | Glossary On
Versions: 1 2 3 4 5 6 7 8 9 10 11 12 13 14 15 16
000
FTUS44 KJAN 242300
TAFHKS
TAF
KHKS 242340Z 2500/2524 21004KT P6SM SKC
     FM251700 22012G22KT P6SM SCT250
     FM252000 25015G28KT P6SM SCT040=

USA.gov is the U.S. government's official web portal to all federal, state and local government web resources and services.